createdAt,value
2023-10-20T00:02:19.090Z,4.32
2023-10-20T00:05:21.503Z,4.37
2023-10-20T00:08:24.685Z,4.32
2023-10-20T00:11:27.343Z,4.25
2023-10-20T00:14:29.777Z,4.30
2023-10-20T00:17:32.299Z,4.55
2023-10-20T00:20:34.909Z,3.67
2023-10-20T00:23:37.343Z,3.92
2023-10-20T00:26:40.750Z,3.90
2023-10-20T00:29:43.235Z,4.03
2023-10-20T00:32:46.829Z,4.63
2023-10-20T00:35:50.027Z,3.77
2023-10-20T00:38:52.427Z,3.65
2023-10-20T00:41:54.838Z,3.95
2023-10-20T00:44:57.266Z,4.65
2023-10-20T00:48:00.557Z,4.53
2023-10-20T00:51:03.326Z,3.93
2023-10-20T00:54:06.409Z,4.22
2023-10-20T00:57:08.967Z,4.63
2023-10-20T01:00:12.157Z,4.40
2023-10-20T01:03:14.720Z,4.03
2023-10-20T01:06:17.217Z,3.90
2023-10-20T01:09:28.867Z,4.15
2023-10-20T01:12:32.381Z,4.43
2023-10-20T01:15:34.862Z,4.43
2023-10-20T01:18:37.293Z,3.95
2023-10-20T01:21:39.681Z,3.97
2023-10-20T01:24:42.051Z,3.80
2023-10-20T01:27:44.474Z,4.40
2023-10-20T01:30:46.877Z,4.10
2023-10-20T01:33:49.492Z,4.38
2023-10-20T01:36:53.313Z,3.93
2023-10-20T01:39:56.303Z,4.45
2023-10-20T01:42:58.723Z,5.13
2023-10-20T01:46:04.858Z,4.75
2023-10-20T01:49:07.236Z,4.53
2023-10-20T01:52:09.779Z,5.00
2023-10-20T01:55:12.282Z,4.38
2023-10-20T01:58:15.280Z,4.82
2023-10-20T02:01:20.221Z,4.80
2023-10-20T02:04:22.706Z,4.50
2023-10-20T02:07:25.052Z,4.50
2023-10-20T02:10:27.540Z,4.55
2023-10-20T02:13:29.944Z,4.25
2023-10-20T02:16:32.676Z,4.45
2023-10-20T02:19:35.113Z,4.82
2023-10-20T02:22:37.511Z,4.67
2023-10-20T02:25:39.903Z,4.15
2023-10-20T02:28:42.273Z,4.70
2023-10-20T02:31:44.658Z,4.35
2023-10-20T02:34:47.168Z,4.97
2023-10-20T02:37:49.658Z,4.70
2023-10-20T02:40:52.932Z,4.25
2023-10-20T02:43:55.576Z,4.13
2023-10-20T02:46:57.998Z,4.90
2023-10-20T02:50:00.423Z,4.70
2023-10-20T02:53:03.417Z,4.40
2023-10-20T02:56:17.049Z,4.35
2023-10-20T02:59:19.515Z,5.20
2023-10-20T03:02:22.063Z,4.40
2023-10-20T03:05:24.514Z,4.80
2023-10-20T03:08:26.989Z,4.80
2023-10-20T03:11:29.486Z,4.70
2023-10-20T03:14:32.927Z,4.68
2023-10-20T03:17:35.734Z,4.93
2023-10-20T03:20:38.227Z,4.55
2023-10-20T03:23:44.981Z,4.07
2023-10-20T03:26:47.674Z,4.07
2023-10-20T03:29:50.534Z,4.22
2023-10-20T03:32:52.956Z,5.20
2023-10-20T03:36:04.954Z,4.68
2023-10-20T03:39:21.138Z,4.30
2023-10-20T03:42:23.580Z,4.68
2023-10-20T03:45:26.854Z,4.65
2023-10-20T03:48:30.767Z,4.40
2023-10-20T03:51:36.418Z,4.75
2023-10-20T03:54:40.049Z,4.57
2023-10-20T03:57:45.978Z,4.10
2023-10-20T04:00:53.642Z,4.60
2023-10-20T04:03:57.158Z,4.93
2023-10-20T04:06:59.637Z,4.85
2023-10-20T04:10:02.577Z,4.33
2023-10-20T04:13:05.706Z,4.43
2023-10-20T04:16:14.997Z,4.35
2023-10-20T04:19:17.502Z,4.20
2023-10-20T04:22:19.895Z,4.30
2023-10-20T04:25:23.498Z,4.17
2023-10-20T04:28:44.073Z,4.38
2023-10-20T04:32:04.978Z,4.38
2023-10-20T04:35:26.049Z,3.60
2023-10-20T04:38:47.277Z,4.47
2023-10-20T04:41:57.495Z,5.17
2023-10-20T04:45:18.093Z,4.53
2023-10-20T04:48:52.635Z,4.43
2023-10-20T04:51:55.010Z,4.28
2023-10-20T04:55:16.060Z,4.68
2023-10-20T04:58:25.535Z,4.73
2023-10-20T05:01:31.418Z,4.53
2023-10-20T05:04:44.015Z,4.85
2023-10-20T05:07:51.317Z,4.35
2023-10-20T05:10:55.339Z,5.00
2023-10-20T05:13:57.937Z,4.50
2023-10-20T05:17:00.298Z,4.38
2023-10-20T05:20:02.720Z,4.97
2023-10-20T05:23:06.873Z,4.72
2023-10-20T05:26:12.413Z,5.20
2023-10-20T05:29:15.640Z,5.03
2023-10-20T05:32:18.587Z,4.55
2023-10-20T05:35:21.898Z,3.97
2023-10-20T05:38:24.573Z,5.28
2023-10-20T05:41:28.571Z,4.95
2023-10-20T05:44:34.708Z,5.07
2023-10-20T05:47:40.382Z,4.38
2023-10-20T05:50:42.945Z,3.88
2023-10-20T05:53:45.424Z,3.97
2023-10-20T05:56:47.944Z,4.68
2023-10-20T05:59:51.090Z,3.87
2023-10-20T06:02:54.289Z,4.40
2023-10-20T06:06:01.705Z,3.90
2023-10-20T06:09:07.433Z,4.10
2023-10-20T06:12:11.576Z,4.13
2023-10-20T06:15:14.002Z,4.10
2023-10-20T06:18:29.187Z,4.88
2023-10-20T06:21:37.646Z,4.32
2023-10-20T06:24:39.998Z,4.40
2023-10-20T06:27:43.754Z,4.40
2023-10-20T06:30:47.438Z,4.60
2023-10-20T06:33:55.570Z,4.07
2023-10-20T06:37:21.319Z,3.85
2023-10-20T06:40:23.737Z,4.07
2023-10-20T06:43:26.486Z,4.30
2023-10-20T06:46:29.487Z,4.90
2023-10-20T06:49:33.661Z,5.95
2023-10-20T06:52:36.643Z,5.75
2023-10-20T06:55:59.380Z,4.10
2023-10-20T06:59:05.425Z,3.65
2023-10-20T07:02:07.808Z,4.13
2023-10-20T07:05:10.207Z,4.10
2023-10-20T07:08:14.842Z,3.70
2023-10-20T07:11:17.518Z,3.40
2023-10-20T07:14:20.005Z,3.65
2023-10-20T07:17:22.450Z,4.00
2023-10-20T07:20:26.106Z,3.95
2023-10-20T07:23:28.555Z,4.13
2023-10-20T07:26:31.324Z,3.97
2023-10-20T07:29:37.463Z,3.83
2023-10-20T07:32:41.849Z,3.97
2023-10-20T07:35:44.408Z,3.40
2023-10-20T07:38:46.934Z,4.05
2023-10-20T07:41:49.431Z,3.92
2023-10-20T07:44:51.825Z,4.22
2023-10-20T07:47:54.377Z,4.07
2023-10-20T07:50:59.452Z,4.22
2023-10-20T07:54:01.916Z,4.35
2023-10-20T07:57:05.095Z,3.78
2023-10-20T08:00:14.515Z,4.30
2023-10-20T08:03:17.177Z,3.67
2023-10-20T08:06:24.152Z,3.58
2023-10-20T08:09:28.690Z,4.63
2023-10-20T08:12:31.092Z,4.10
2023-10-20T08:15:37.768Z,4.10
2023-10-20T08:18:40.230Z,4.40
2023-10-20T08:21:43.682Z,4.10
2023-10-20T08:24:46.697Z,4.38
2023-10-20T08:27:52.111Z,3.97
2023-10-20T08:31:10.869Z,4.50
2023-10-20T08:34:14.686Z,4.00
2023-10-20T08:37:18.282Z,4.80
2023-10-20T08:40:20.775Z,4.32
2023-10-20T08:43:23.442Z,4.60
2023-10-20T08:46:26.086Z,3.67
2023-10-20T08:49:29.061Z,3.03
2023-10-20T08:52:31.758Z,3.08
2023-10-20T08:55:34.232Z,4.20
2023-10-20T08:58:36.904Z,3.22
2023-10-20T09:01:39.820Z,4.57
2023-10-20T09:04:42.331Z,3.73
2023-10-20T09:07:52.286Z,3.45
2023-10-20T09:10:55.369Z,3.60
2023-10-20T09:13:58.262Z,3.55
2023-10-20T09:17:04.159Z,3.15
2023-10-20T09:20:13.107Z,3.50
2023-10-20T09:23:15.633Z,3.70
2023-10-20T09:26:18.087Z,4.15
2023-10-20T09:29:20.504Z,3.70
2023-10-20T09:32:23.072Z,4.07
2023-10-20T09:35:27.217Z,3.80
2023-10-20T09:38:29.781Z,3.10
2023-10-20T09:41:32.313Z,3.70
2023-10-20T09:44:50.479Z,2.95
2023-10-20T09:47:53.553Z,3.78
2023-10-20T09:50:56.344Z,3.83
2023-10-20T09:53:58.828Z,3.10
2023-10-20T09:57:01.769Z,3.67
2023-10-20T10:00:10.621Z,2.63
2023-10-20T10:03:14.132Z,3.17
2023-10-20T10:06:20.747Z,3.23
2023-10-20T10:09:23.303Z,2.85
2023-10-20T10:12:29.617Z,3.58
2023-10-20T10:15:41.963Z,3.15
2023-10-20T10:18:47.559Z,2.90
2023-10-20T10:21:51.733Z,2.77
2023-10-20T10:24:57.992Z,3.03
2023-10-20T10:28:11.400Z,3.47
2023-10-20T10:31:13.894Z,3.55
2023-10-20T10:34:16.433Z,3.08
2023-10-20T10:37:34.876Z,3.37
2023-10-20T10:40:46.644Z,3.45
2023-10-20T10:43:54.288Z,3.85
2023-10-20T10:46:56.781Z,3.60
2023-10-20T10:49:59.235Z,3.50
2023-10-20T10:53:02.218Z,3.70
2023-10-20T10:56:05.058Z,3.70
2023-10-20T10:59:08.352Z,3.58
2023-10-20T11:02:11.016Z,3.35
2023-10-20T11:05:14.025Z,3.67
2023-10-20T11:08:18.759Z,3.80
2023-10-20T11:11:21.277Z,3.28
2023-10-20T11:14:24.892Z,4.20
2023-10-20T11:17:29.089Z,4.03
2023-10-20T11:20:37.662Z,4.00
2023-10-20T11:23:40.241Z,4.30
2023-10-20T11:26:42.683Z,4.03
2023-10-20T11:29:58.454Z,3.83
2023-10-20T11:33:02.050Z,3.78
2023-10-20T11:36:05.772Z,3.65
2023-10-20T11:39:08.146Z,3.90
2023-10-20T11:42:13.086Z,4.15
2023-10-20T11:45:16.084Z,3.47
2023-10-20T11:48:18.770Z,3.55
2023-10-20T11:51:21.192Z,3.75
2023-10-20T11:54:23.693Z,4.10
2023-10-20T11:57:26.106Z,3.35
2023-10-20T12:00:28.468Z,3.72
2023-10-20T12:03:31.156Z,3.92
2023-10-20T12:06:37.427Z,3.70
2023-10-20T12:09:39.781Z,3.77
2023-10-20T12:12:42.158Z,3.50
2023-10-20T12:15:44.606Z,3.33
2023-10-20T12:18:47.755Z,3.55
2023-10-20T12:21:50.115Z,3.47
2023-10-20T12:24:52.504Z,3.50
2023-10-20T12:27:54.881Z,3.42
2023-10-20T12:30:57.337Z,3.80
2023-10-20T12:33:59.815Z,3.40
2023-10-20T12:37:02.404Z,3.22
2023-10-20T12:40:05.251Z,3.00
2023-10-20T12:43:12.996Z,2.40
2023-10-20T12:46:17.136Z,3.97
2023-10-20T12:49:20.187Z,3.25
2023-10-20T12:52:23.012Z,2.63
2023-10-20T12:55:27.365Z,3.40
2023-10-20T12:58:29.726Z,3.92
2023-10-20T13:01:32.171Z,4.05
2023-10-20T13:04:35.594Z,3.45
2023-10-20T13:07:38.920Z,4.25
2023-10-20T13:10:44.892Z,3.80
2023-10-20T13:13:47.432Z,3.60
2023-10-20T13:16:49.870Z,3.90
2023-10-20T13:19:52.394Z,4.22
2023-10-20T13:22:54.794Z,3.30
2023-10-20T13:26:05.771Z,3.43
2023-10-20T13:29:08.240Z,4.78
2023-10-20T13:32:10.661Z,4.65
2023-10-20T13:35:13.147Z,3.50
2023-10-20T13:38:18.886Z,4.03
2023-10-20T13:41:34.849Z,3.57
2023-10-20T13:44:37.685Z,3.53
2023-10-20T13:47:40.241Z,3.22
2023-10-20T13:50:42.754Z,3.60
2023-10-20T13:53:45.194Z,4.90
2023-10-20T13:56:48.149Z,3.30
2023-10-20T13:59:50.699Z,4.18
2023-10-20T14:02:53.185Z,4.32
2023-10-20T14:05:56.354Z,2.95
2023-10-20T14:08:59.085Z,3.50
2023-10-20T14:12:01.506Z,3.20
2023-10-20T14:15:04.804Z,4.00
2023-10-20T14:18:07.568Z,4.32
2023-10-20T14:21:10.039Z,3.17
2023-10-20T14:24:12.440Z,3.60
2023-10-20T14:27:14.913Z,3.90
2023-10-20T14:30:17.309Z,3.55
2023-10-20T14:33:19.760Z,3.50
2023-10-20T14:36:22.260Z,3.70
2023-10-20T14:39:25.770Z,3.97
2023-10-20T14:42:28.133Z,2.80
2023-10-20T14:45:30.557Z,3.40
2023-10-20T14:48:33.601Z,3.22
2023-10-20T14:51:36.107Z,3.28
2023-10-20T14:54:38.553Z,3.22
2023-10-20T14:57:41.493Z,3.87
2023-10-20T15:00:50.234Z,3.35
2023-10-20T15:03:52.766Z,4.07
2023-10-20T15:06:55.328Z,3.17
2023-10-20T15:09:58.640Z,3.60
2023-10-20T15:13:02.090Z,3.03
2023-10-20T15:16:06.356Z,3.63
2023-10-20T15:19:08.883Z,4.28
2023-10-20T15:22:11.387Z,4.40
2023-10-20T15:25:13.737Z,3.40
2023-10-20T15:28:16.312Z,3.73
2023-10-20T15:31:18.718Z,3.70
2023-10-20T15:34:21.158Z,3.90
2023-10-20T15:37:26.144Z,3.33
2023-10-20T15:40:28.879Z,3.92
2023-10-20T15:43:31.458Z,3.30
2023-10-20T15:46:33.896Z,3.60
2023-10-20T15:49:36.452Z,3.88
2023-10-20T15:52:39.905Z,3.17
2023-10-20T15:55:43.075Z,2.83
2023-10-20T15:58:45.504Z,3.30
2023-10-20T16:01:47.928Z,3.17
2023-10-20T16:04:53.258Z,3.53
2023-10-20T16:07:55.617Z,3.80
2023-10-20T16:10:58.046Z,3.90
2023-10-20T16:14:01.638Z,6.47
2023-10-20T16:17:04.064Z,4.28
2023-10-20T16:20:06.817Z,3.28
2023-10-20T16:23:09.220Z,3.58
2023-10-20T16:26:12.404Z,3.42
2023-10-20T16:29:14.881Z,3.30
2023-10-20T16:32:17.291Z,3.75
2023-10-20T16:35:19.674Z,4.10
2023-10-20T16:38:22.142Z,3.50
2023-10-20T16:41:24.602Z,3.70
2023-10-20T16:44:28.471Z,3.47
2023-10-20T16:47:31.069Z,3.20
2023-10-20T16:50:33.541Z,3.03
2023-10-20T16:53:36.598Z,3.97
2023-10-20T16:56:39.528Z,3.60
2023-10-20T16:59:42.033Z,3.30
2023-10-20T17:02:45.551Z,3.17
2023-10-20T17:05:48.109Z,3.83
2023-10-20T17:08:51.200Z,3.53
2023-10-20T17:11:53.642Z,2.92
2023-10-20T17:14:56.081Z,3.10
2023-10-20T17:17:58.617Z,4.30
2023-10-20T17:21:04.878Z,3.20
2023-10-20T17:24:09.515Z,3.75
2023-10-20T17:27:11.990Z,3.10
2023-10-20T17:30:14.550Z,3.27
2023-10-20T17:33:17.911Z,3.10
2023-10-20T17:36:20.409Z,3.78
2023-10-20T17:39:22.848Z,3.30
2023-10-20T17:42:25.408Z,3.72
2023-10-20T17:45:28.146Z,3.10
2023-10-20T17:48:30.819Z,3.25
2023-10-20T17:51:33.642Z,3.05
2023-10-20T17:54:36.068Z,3.20
2023-10-20T17:57:38.462Z,3.72
2023-10-20T18:00:42.225Z,3.83
2023-10-20T18:03:44.983Z,3.13
2023-10-20T18:06:47.492Z,3.00
2023-10-20T18:09:49.968Z,3.00
2023-10-20T18:12:52.356Z,3.70
2023-10-20T18:15:54.770Z,2.83
2023-10-20T18:18:57.222Z,3.10
2023-10-20T18:21:59.594Z,2.90
2023-10-20T18:25:02.012Z,3.78
2023-10-20T18:28:04.652Z,3.20
2023-10-20T18:31:14.451Z,3.10
2023-10-20T18:34:16.925Z,2.83
2023-10-20T18:37:19.720Z,3.70
2023-10-20T18:40:22.099Z,3.28
2023-10-20T18:43:24.561Z,3.08
2023-10-20T18:46:27.460Z,4.83
2023-10-20T18:49:29.882Z,3.00
2023-10-20T18:52:32.371Z,3.08
2023-10-20T18:55:34.987Z,3.40
2023-10-20T18:58:37.971Z,2.65
2023-10-20T19:01:40.527Z,3.20
2023-10-20T19:04:42.939Z,3.33
2023-10-20T19:07:45.627Z,2.75
2023-10-20T19:10:48.052Z,2.78
2023-10-20T19:13:50.422Z,2.70
2023-10-20T19:16:54.039Z,2.87
2023-10-20T19:19:56.453Z,2.70
2023-10-20T19:23:00.788Z,3.40
2023-10-20T19:26:11.505Z,3.53
2023-10-20T19:29:14.187Z,3.00
2023-10-20T19:32:16.751Z,3.60
2023-10-20T19:35:19.154Z,3.13
2023-10-20T19:38:21.605Z,3.58
2023-10-20T19:41:24.010Z,3.20
2023-10-20T19:44:26.414Z,2.70
2023-10-20T19:47:28.950Z,3.90
2023-10-20T19:50:31.364Z,3.30
2023-10-20T19:53:33.849Z,3.33
2023-10-20T19:56:36.409Z,3.13
2023-10-20T19:59:38.976Z,3.30
2023-10-20T20:02:42.303Z,3.50
2023-10-20T20:05:44.899Z,3.55
2023-10-20T20:08:47.360Z,3.30
2023-10-20T20:11:49.797Z,3.03
2023-10-20T20:14:52.286Z,3.92
2023-10-20T20:17:56.196Z,2.90
2023-10-20T20:20:59.171Z,3.30
2023-10-20T20:24:01.624Z,3.28
2023-10-20T20:27:04.297Z,3.50
2023-10-20T20:30:07.399Z,3.20
2023-10-20T20:33:10.063Z,3.30
2023-10-20T20:36:12.538Z,3.55
2023-10-20T20:39:14.999Z,2.88
2023-10-20T20:42:18.125Z,3.13
2023-10-20T20:45:20.514Z,3.25
2023-10-20T20:48:23.050Z,3.50
2023-10-20T20:51:25.508Z,3.53
2023-10-20T20:54:27.878Z,3.65
2023-10-20T20:57:30.290Z,3.30
2023-10-20T21:00:32.654Z,3.70
2023-10-20T21:03:35.163Z,2.83
2023-10-20T21:06:37.683Z,3.33
2023-10-20T21:09:40.110Z,3.83
2023-10-20T21:12:42.487Z,3.00
2023-10-20T21:15:44.903Z,3.22
2023-10-20T21:18:47.329Z,3.20
2023-10-20T21:21:49.795Z,2.88
2023-10-20T21:24:55.605Z,3.35
2023-10-20T21:27:57.992Z,3.22
2023-10-20T21:31:03.829Z,3.15
2023-10-20T21:34:06.245Z,3.57
2023-10-20T21:37:08.608Z,3.20
2023-10-20T21:40:11.493Z,2.85
2023-10-20T21:43:14.450Z,3.28
2023-10-20T21:46:16.864Z,3.03
2023-10-20T21:49:19.319Z,2.93
2023-10-20T21:52:21.758Z,2.75
2023-10-20T21:55:24.362Z,2.85
2023-10-20T21:58:26.733Z,3.50
2023-10-20T22:01:29.148Z,3.67
2023-10-20T22:04:31.520Z,2.47
2023-10-20T22:07:33.926Z,2.85
2023-10-20T22:10:36.302Z,3.05
2023-10-20T22:13:38.654Z,2.80
2023-10-20T22:16:41.154Z,2.80
2023-10-20T22:19:43.651Z,3.27
2023-10-20T22:22:46.045Z,4.57
2023-10-20T22:25:48.492Z,3.17
2023-10-20T22:28:51.119Z,2.97
2023-10-20T22:31:53.738Z,3.03
2023-10-20T22:34:56.139Z,3.13
2023-10-20T22:37:58.570Z,2.90
2023-10-20T22:41:00.983Z,2.60
2023-10-20T22:44:03.595Z,3.78
2023-10-20T22:47:06.128Z,2.97
2023-10-20T22:50:09.173Z,2.50
2023-10-20T22:53:11.758Z,2.90
2023-10-20T22:56:14.192Z,4.32
2023-10-20T22:59:16.624Z,2.83
2023-10-20T23:02:19.033Z,3.95
2023-10-20T23:05:23.221Z,2.77
2023-10-20T23:08:26.797Z,3.35
2023-10-20T23:11:29.218Z,2.70
2023-10-20T23:14:31.929Z,2.83
2023-10-20T23:17:34.423Z,3.05
2023-10-20T23:20:36.924Z,3.00
2023-10-20T23:23:39.316Z,2.90
2023-10-20T23:26:42.048Z,2.83
2023-10-20T23:29:44.539Z,2.83
2023-10-20T23:32:47.146Z,3.08
2023-10-20T23:35:49.862Z,2.43
2023-10-20T23:38:52.330Z,3.05
2023-10-20T23:41:54.875Z,2.97
2023-10-20T23:44:57.427Z,2.92
2023-10-20T23:47:59.980Z,3.20
2023-10-20T23:51:02.433Z,3.47
2023-10-20T23:54:05.039Z,2.85
2023-10-20T23:57:07.488Z,2.38
